sensor_id;sensor_type;location;lat;lon;timestamp;pressure;altitude;pressure_sealevel;temperature;humidity
31285;BME280;56605;51.516;6.742;2023-03-24T00:01:49;99892.47;;;11.09;100.00
31285;BME280;56605;51.516;6.742;2023-03-24T00:04:15;99893.56;;;11.15;100.00
31285;BME280;56605;51.516;6.742;2023-03-24T00:06:41;99884.09;;;11.12;100.00
31285;BME280;56605;51.516;6.742;2023-03-24T00:09:07;99884.66;;;11.08;100.00
31285;BME280;56605;51.516;6.742;2023-03-24T00:11:33;99877.94;;;11.12;100.00
31285;BME280;56605;51.516;6.742;2023-03-24T00:14:00;99875.56;;;11.02;100.00
31285;BME280;56605;51.516;6.742;2023-03-24T00:16:25;99873.22;;;11.14;100.00
31285;BME280;56605;51.516;6.742;2023-03-24T00:18:50;99867.47;;;11.17;100.00
31285;BME280;56605;51.516;6.742;2023-03-24T00:21:17;99863.97;;;11.16;100.00
31285;BME280;56605;51.516;6.742;2023-03-24T00:23:46;99866.66;;;11.16;100.00
31285;BME280;56605;51.516;6.742;2023-03-24T00:26:12;99859.84;;;11.14;100.00
31285;BME280;56605;51.516;6.742;2023-03-24T00:28:40;99835.00;;;11.13;100.00
31285;BME280;56605;51.516;6.742;2023-03-24T00:31:07;99859.47;;;11.17;100.00
31285;BME280;56605;51.516;6.742;2023-03-24T00:33:33;99842.03;;;11.21;100.00
31285;BME280;56605;51.516;6.742;2023-03-24T00:36:00;99834.84;;;11.22;100.00
31285;BME280;56605;51.516;6.742;2023-03-24T00:38:26;99839.53;;;11.20;100.00
31285;BME280;56605;51.516;6.742;2023-03-24T00:40:51;99825.41;;;11.26;100.00
31285;BME280;56605;51.516;6.742;2023-03-24T00:43:17;99827.22;;;11.19;100.00
31285;BME280;56605;51.516;6.742;2023-03-24T00:45:43;99818.56;;;11.16;100.00
31285;BME280;56605;51.516;6.742;2023-03-24T00:48:15;99823.88;;;11.10;100.00
31285;BME280;56605;51.516;6.742;2023-03-24T00:50:46;99808.28;;;11.13;100.00
31285;BME280;56605;51.516;6.742;2023-03-24T00:53:14;99811.97;;;11.12;100.00
31285;BME280;56605;51.516;6.742;2023-03-24T00:55:41;99806.63;;;11.12;100.00
31285;BME280;56605;51.516;6.742;2023-03-24T00:58:06;99806.38;;;11.07;100.00
31285;BME280;56605;51.516;6.742;2023-03-24T01:00:32;99805.50;;;11.00;100.00
31285;BME280;56605;51.516;6.742;2023-03-24T01:02:57;99791.97;;;11.01;100.00
31285;BME280;56605;51.516;6.742;2023-03-24T01:05:26;99792.19;;;11.07;100.00
31285;BME280;56605;51.516;6.742;2023-03-24T01:07:55;99790.75;;;11.04;100.00
31285;BME280;56605;51.516;6.742;2023-03-24T01:10:22;99787.31;;;11.10;100.00
31285;BME280;56605;51.516;6.742;2023-03-24T01:12:54;99775.78;;;11.10;100.00
31285;BME280;56605;51.516;6.742;2023-03-24T01:15:21;99781.13;;;11.10;100.00
31285;BME280;56605;51.516;6.742;2023-03-24T01:17:49;99777.50;;;11.18;100.00
31285;BME280;56605;51.516;6.742;2023-03-24T01:20:15;99778.91;;;11.13;100.00
31285;BME280;56605;51.516;6.742;2023-03-24T01:22:42;99776.00;;;11.15;100.00
31285;BME280;56605;51.516;6.742;2023-03-24T01:25:18;99778.94;;;11.20;100.00
31285;BME280;56605;51.516;6.742;2023-03-24T01:27:45;99768.47;;;11.25;100.00
31285;BME280;56605;51.516;6.742;2023-03-24T01:30:20;99762.94;;;11.27;100.00
31285;BME280;56605;51.516;6.742;2023-03-24T01:32:46;99756.63;;;11.35;100.00
31285;BME280;56605;51.516;6.742;2023-03-24T01:35:11;99747.78;;;11.34;100.00
31285;BME280;56605;51.516;6.742;2023-03-24T01:37:38;99760.72;;;11.31;100.00
31285;BME280;56605;51.516;6.742;2023-03-24T01:40:04;99749.00;;;11.32;100.00
31285;BME280;56605;51.516;6.742;2023-03-24T01:42:34;99736.50;;;11.39;100.00
31285;BME280;56605;51.516;6.742;2023-03-24T01:45:32;99734.47;;;11.48;100.00
31285;BME280;56605;51.516;6.742;2023-03-24T01:47:46;99738.78;;;11.42;100.00
31285;BME280;56605;51.516;6.742;2023-03-24T01:50:11;99732.41;;;11.43;100.00
31285;BME280;56605;51.516;6.742;2023-03-24T01:52:37;99731.81;;;11.48;100.00
31285;BME280;56605;51.516;6.742;2023-03-24T01:55:07;99734.47;;;11.48;100.00
31285;BME280;56605;51.516;6.742;2023-03-24T01:57:40;99727.72;;;11.52;100.00
31285;BME280;56605;51.516;6.742;2023-03-24T02:00:10;99717.84;;;11.46;100.00
31285;BME280;56605;51.516;6.742;2023-03-24T02:02:37;99715.16;;;11.46;100.00
31285;BME280;56605;51.516;6.742;2023-03-24T02:05:07;99701.81;;;11.46;100.00
31285;BME280;56605;51.516;6.742;2023-03-24T02:07:39;99697.47;;;11.45;100.00
31285;BME280;56605;51.516;6.742;2023-03-24T02:10:15;99694.38;;;11.41;100.00
31285;BME280;56605;51.516;6.742;2023-03-24T02:12:42;99689.22;;;11.33;100.00
31285;BME280;56605;51.516;6.742;2023-03-24T02:15:08;99697.44;;;11.38;100.00
31285;BME280;56605;51.516;6.742;2023-03-24T02:20:33;99662.09;;;11.43;100.00
31285;BME280;56605;51.516;6.742;2023-03-24T02:23:43;99674.69;;;11.49;100.00
31285;BME280;56605;51.516;6.742;2023-03-24T02:35:16;99650.88;;;11.61;100.00
31285;BME280;56605;51.516;6.742;2023-03-24T02:46:24;99645.31;;;11.69;100.00
31285;BME280;56605;51.516;6.742;2023-03-24T02:49:02;99640.38;;;11.73;100.00
31285;BME280;56605;51.516;6.742;2023-03-24T02:51:45;99634.84;;;11.74;100.00
31285;BME280;56605;51.516;6.742;2023-03-24T02:59:18;99637.13;;;11.91;100.00
31285;BME280;56605;51.516;6.742;2023-03-24T03:01:50;99629.75;;;11.93;100.00
31285;BME280;56605;51.516;6.742;2023-03-24T03:04:22;99618.63;;;11.96;100.00
31285;BME280;56605;51.516;6.742;2023-03-24T03:06:52;99621.91;;;11.98;100.00
31285;BME280;56605;51.516;6.742;2023-03-24T03:09:20;99626.69;;;12.23;100.00
31285;BME280;56605;51.516;6.742;2023-03-24T03:11:49;99616.19;;;12.28;100.00
31285;BME280;56605;51.516;6.742;2023-03-24T03:14:20;99609.81;;;12.29;100.00
31285;BME280;56605;51.516;6.742;2023-03-24T03:16:58;99615.19;;;12.36;100.00
31285;BME280;56605;51.516;6.742;2023-03-24T03:19:39;99619.28;;;12.32;100.00
31285;BME280;56605;51.516;6.742;2023-03-24T03:22:10;99611.06;;;12.27;100.00
31285;BME280;56605;51.516;6.742;2023-03-24T03:24:39;99616.19;;;12.35;100.00
31285;BME280;56605;51.516;6.742;2023-03-24T03:27:10;99604.66;;;12.41;100.00
31285;BME280;56605;51.516;6.742;2023-03-24T03:29:40;99611.44;;;12.51;100.00
31285;BME280;56605;51.516;6.742;2023-03-24T03:32:09;99596.59;;;12.48;100.00
31285;BME280;56605;51.516;6.742;2023-03-24T03:37:49;99605.69;;;12.54;100.00
31285;BME280;56605;51.516;6.742;2023-03-24T03:40:22;99604.03;;;12.60;100.00
31285;BME280;56605;51.516;6.742;2023-03-24T03:42:49;99603.41;;;12.64;100.00
31285;BME280;56605;51.516;6.742;2023-03-24T03:45:15;99611.81;;;12.68;100.00
31285;BME280;56605;51.516;6.742;2023-03-24T03:47:41;99599.25;;;12.68;100.00
31285;BME280;56605;51.516;6.742;2023-03-24T03:50:08;99623.16;;;12.70;100.00
31285;BME280;56605;51.516;6.742;2023-03-24T03:52:35;99604.41;;;12.70;100.00
31285;BME280;56605;51.516;6.742;2023-03-24T03:55:02;99619.84;;;12.75;100.00
31285;BME280;56605;51.516;6.742;2023-03-24T03:57:28;99612.03;;;12.66;100.00
31285;BME280;56605;51.516;6.742;2023-03-24T03:59:54;99622.13;;;12.64;100.00
31285;BME280;56605;51.516;6.742;2023-03-24T04:13:18;99650.97;;;12.49;100.00
31285;BME280;56605;51.516;6.742;2023-03-24T04:15:53;99661.50;;;12.43;100.00
31285;BME280;56605;51.516;6.742;2023-03-24T04:18:49;99659.22;;;12.34;100.00
31285;BME280;56605;51.516;6.742;2023-03-24T04:21:44;99675.88;;;12.22;100.00
31285;BME280;56605;51.516;6.742;2023-03-24T04:24:59;99671.75;;;12.13;100.00
31285;BME280;56605;51.516;6.742;2023-03-24T04:27:28;99681.03;;;12.10;100.00
31285;BME280;56605;51.516;6.742;2023-03-24T04:30:16;99680.78;;;12.05;100.00
31285;BME280;56605;51.516;6.742;2023-03-24T04:32:51;99673.97;;;12.02;100.00
31285;BME280;56605;51.516;6.742;2023-03-24T04:35:26;99674.59;;;11.98;100.00
31285;BME280;56605;51.516;6.742;2023-03-24T04:38:04;99692.47;;;11.90;100.00
31285;BME280;56605;51.516;6.742;2023-03-24T04:40:33;99705.03;;;11.90;100.00
31285;BME280;56605;51.516;6.742;2023-03-24T04:43:03;99709.13;;;11.86;100.00
31285;BME280;56605;51.516;6.742;2023-03-24T04:45:32;99718.38;;;11.83;100.00
31285;BME280;56605;51.516;6.742;2023-03-24T04:48:01;99725.38;;;11.84;100.00
31285;BME280;56605;51.516;6.742;2023-03-24T04:50:39;99743.06;;;11.85;100.00
31285;BME280;56605;51.516;6.742;2023-03-24T04:53:06;99738.16;;;11.89;100.00
31285;BME280;56605;51.516;6.742;2023-03-24T04:56:03;99759.31;;;11.84;100.00
31285;BME280;56605;51.516;6.742;2023-03-24T04:58:31;99774.91;;;11.73;100.00
31285;BME280;56605;51.516;6.742;2023-03-24T05:00:57;99762.91;;;11.62;100.00
31285;BME280;56605;51.516;6.742;2023-03-24T05:03:23;99769.28;;;11.54;100.00
31285;BME280;56605;51.516;6.742;2023-03-24T05:05:50;99778.28;;;11.47;100.00
31285;BME280;56605;51.516;6.742;2023-03-24T05:08:17;99789.13;;;11.38;100.00
31285;BME280;56605;51.516;6.742;2023-03-24T05:10:43;99792.59;;;11.32;100.00
31285;BME280;56605;51.516;6.742;2023-03-24T05:13:09;99822.53;;;11.21;100.00
31285;BME280;56605;51.516;6.742;2023-03-24T05:15:34;99821.38;;;11.08;100.00
31285;BME280;56605;51.516;6.742;2023-03-24T05:18:00;99820.47;;;10.94;100.00
31285;BME280;56605;51.516;6.742;2023-03-24T05:20:26;99828.78;;;10.84;100.00
31285;BME280;56605;51.516;6.742;2023-03-24T05:22:51;99829.69;;;10.70;100.00
31285;BME280;56605;51.516;6.742;2023-03-24T05:25:18;99848.13;;;10.64;100.00
31285;BME280;56605;51.516;6.742;2023-03-24T05:27:44;99842.91;;;10.56;100.00
31285;BME280;56605;51.516;6.742;2023-03-24T05:30:10;99856.56;;;10.46;100.00
31285;BME280;56605;51.516;6.742;2023-03-24T05:32:36;99864.44;;;10.39;100.00
31285;BME280;56605;51.516;6.742;2023-03-24T05:35:01;99874.59;;;10.29;100.00
31285;BME280;56605;51.516;6.742;2023-03-24T05:37:26;99873.88;;;10.20;100.00
31285;BME280;56605;51.516;6.742;2023-03-24T05:39:52;99887.31;;;10.12;100.00
31285;BME280;56605;51.516;6.742;2023-03-24T05:42:18;99896.34;;;10.11;100.00
31285;BME280;56605;51.516;6.742;2023-03-24T05:44:44;99892.56;;;10.05;100.00
31285;BME280;56605;51.516;6.742;2023-03-24T05:47:10;99908.28;;;10.00;100.00
31285;BME280;56605;51.516;6.742;2023-03-24T05:49:36;99907.38;;;9.93;100.00
31285;BME280;56605;51.516;6.742;2023-03-24T05:52:02;99915.47;;;9.84;100.00
31285;BME280;56605;51.516;6.742;2023-03-24T05:54:27;99921.69;;;9.76;100.00
31285;BME280;56605;51.516;6.742;2023-03-24T05:56:53;99920.59;;;9.71;100.00
31285;BME280;56605;51.516;6.742;2023-03-24T05:59:18;99929.41;;;9.71;100.00
31285;BME280;56605;51.516;6.742;2023-03-24T06:01:43;99919.94;;;9.69;100.00
31285;BME280;56605;51.516;6.742;2023-03-24T06:04:09;99939.25;;;9.71;100.00
31285;BME280;56605;51.516;6.742;2023-03-24T06:06:34;99936.59;;;9.71;100.00
31285;BME280;56605;51.516;6.742;2023-03-24T06:09:00;99939.78;;;9.66;100.00
31285;BME280;56605;51.516;6.742;2023-03-24T06:11:28;99935.13;;;9.68;100.00
31285;BME280;56605;51.516;6.742;2023-03-24T06:13:54;99951.91;;;9.69;100.00
31285;BME280;56605;51.516;6.742;2023-03-24T06:16:27;99937.59;;;9.70;100.00
31285;BME280;56605;51.516;6.742;2023-03-24T06:18:53;99936.28;;;9.66;100.00
31285;BME280;56605;51.516;6.742;2023-03-24T06:21:19;99937.31;;;9.64;100.00
31285;BME280;56605;51.516;6.742;2023-03-24T06:23:45;99938.16;;;9.65;100.00
31285;BME280;56605;51.516;6.742;2023-03-24T06:26:11;99947.97;;;9.64;100.00
31285;BME280;56605;51.516;6.742;2023-03-24T06:28:38;99950.19;;;9.61;100.00
31285;BME280;56605;51.516;6.742;2023-03-24T06:31:04;99949.16;;;9.62;100.00
31285;BME280;56605;51.516;6.742;2023-03-24T06:33:30;99960.47;;;9.64;100.00
31285;BME280;56605;51.516;6.742;2023-03-24T06:35:55;99966.63;;;9.64;100.00
31285;BME280;56605;51.516;6.742;2023-03-24T06:38:21;99955.97;;;9.64;100.00
31285;BME280;56605;51.516;6.742;2023-03-24T06:40:46;99966.94;;;9.70;100.00
31285;BME280;56605;51.516;6.742;2023-03-24T06:43:12;99967.72;;;9.70;100.00
31285;BME280;56605;51.516;6.742;2023-03-24T06:45:37;99969.59;;;9.70;100.00
31285;BME280;56605;51.516;6.742;2023-03-24T06:48:04;99983.38;;;9.73;100.00
31285;BME280;56605;51.516;6.742;2023-03-24T06:50:29;99962.53;;;9.77;100.00
31285;BME280;56605;51.516;6.742;2023-03-24T06:52:59;99972.16;;;9.78;100.00
31285;BME280;56605;51.516;6.742;2023-03-24T06:55:25;99980.81;;;9.80;100.00
31285;BME280;56605;51.516;6.742;2023-03-24T06:57:51;99982.66;;;9.80;100.00
31285;BME280;56605;51.516;6.742;2023-03-24T07:00:16;99988.06;;;9.86;100.00
31285;BME280;56605;51.516;6.742;2023-03-24T07:02:42;99982.75;;;9.86;100.00
31285;BME280;56605;51.516;6.742;2023-03-24T07:05:08;99978.91;;;9.89;100.00
31285;BME280;56605;51.516;6.742;2023-03-24T07:07:35;99978.69;;;9.90;100.00
31285;BME280;56605;51.516;6.742;2023-03-24T07:10:01;99979.47;;;9.99;100.00
31285;BME280;56605;51.516;6.742;2023-03-24T07:12:27;99973.19;;;10.07;100.00
31285;BME280;56605;51.516;6.742;2023-03-24T07:14:52;99982.31;;;10.13;100.00
31285;BME280;56605;51.516;6.742;2023-03-24T07:17:18;99978.19;;;10.25;100.00
31285;BME280;56605;51.516;6.742;2023-03-24T07:19:43;99976.53;;;10.24;100.00
31285;BME280;56605;51.516;6.742;2023-03-24T07:22:11;99975.34;;;10.27;100.00
31285;BME280;56605;51.516;6.742;2023-03-24T07:24:37;99983.78;;;10.31;100.00
31285;BME280;56605;51.516;6.742;2023-03-24T07:27:02;99980.56;;;10.35;100.00
31285;BME280;56605;51.516;6.742;2023-03-24T07:29:28;99975.63;;;10.47;100.00
31285;BME280;56605;51.516;6.742;2023-03-24T07:31:53;99986.56;;;10.52;100.00
31285;BME280;56605;51.516;6.742;2023-03-24T07:34:26;99974.41;;;10.50;100.00
31285;BME280;56605;51.516;6.742;2023-03-24T07:36:51;99971.31;;;10.46;100.00
31285;BME280;56605;51.516;6.742;2023-03-24T07:39:17;99991.44;;;10.49;100.00
31285;BME280;56605;51.516;6.742;2023-03-24T07:41:42;100003.41;;;10.53;100.00
31285;BME280;56605;51.516;6.742;2023-03-24T07:44:08;99992.81;;;10.60;100.00
31285;BME280;56605;51.516;6.742;2023-03-24T07:46:33;100003.19;;;10.70;100.00
31285;BME280;56605;51.516;6.742;2023-03-24T07:48:59;99991.97;;;10.74;100.00
31285;BME280;56605;51.516;6.742;2023-03-24T07:51:26;99989.66;;;10.71;100.00
31285;BME280;56605;51.516;6.742;2023-03-24T07:53:51;100000.41;;;10.78;100.00
31285;BME280;56605;51.516;6.742;2023-03-24T07:56:16;99992.13;;;10.88;100.00
31285;BME280;56605;51.516;6.742;2023-03-24T07:58:42;100001.75;;;11.04;100.00
31285;BME280;56605;51.516;6.742;2023-03-24T08:01:08;100001.56;;;11.06;100.00
31285;BME280;56605;51.516;6.742;2023-03-24T08:03:35;100009.06;;;11.17;100.00
31285;BME280;56605;51.516;6.742;2023-03-24T08:06:01;100016.75;;;11.27;100.00
31285;BME280;56605;51.516;6.742;2023-03-24T08:08:27;100009.53;;;11.21;100.00
31285;BME280;56605;51.516;6.742;2023-03-24T08:10:52;100024.34;;;11.45;100.00
31285;BME280;56605;51.516;6.742;2023-03-24T08:13:17;100022.38;;;11.54;100.00
31285;BME280;56605;51.516;6.742;2023-03-24T08:15:42;100030.03;;;11.35;100.00
31285;BME280;56605;51.516;6.742;2023-03-24T08:18:08;100026.06;;;11.31;100.00
31285;BME280;56605;51.516;6.742;2023-03-24T08:20:33;100034.41;;;11.06;100.00
31285;BME280;56605;51.516;6.742;2023-03-24T08:22:58;100044.50;;;10.89;100.00
31285;BME280;56605;51.516;6.742;2023-03-24T08:25:25;100033.09;;;10.95;100.00
31285;BME280;56605;51.516;6.742;2023-03-24T08:27:52;100032.91;;;10.97;100.00
31285;BME280;56605;51.516;6.742;2023-03-24T08:30:20;100037.03;;;10.99;100.00
31285;BME280;56605;51.516;6.742;2023-03-24T08:32:47;100037.09;;;11.06;100.00
31285;BME280;56605;51.516;6.742;2023-03-24T08:35:18;100049.69;;;11.12;100.00
31285;BME280;56605;51.516;6.742;2023-03-24T08:37:44;100047.50;;;11.16;100.00
31285;BME280;56605;51.516;6.742;2023-03-24T08:40:11;100050.94;;;11.32;100.00
31285;BME280;56605;51.516;6.742;2023-03-24T08:42:39;100044.59;;;11.54;100.00
31285;BME280;56605;51.516;6.742;2023-03-24T08:45:06;100054.53;;;11.61;100.00
31285;BME280;56605;51.516;6.742;2023-03-24T08:47:31;100046.25;;;11.56;100.00
31285;BME280;56605;51.516;6.742;2023-03-24T08:49:56;100048.78;;;11.64;100.00
31285;BME280;56605;51.516;6.742;2023-03-24T08:52:22;100062.19;;;11.92;100.00
31285;BME280;56605;51.516;6.742;2023-03-24T08:54:48;100050.41;;;11.87;100.00
31285;BME280;56605;51.516;6.742;2023-03-24T08:57:14;100070.66;;;11.96;100.00
31285;BME280;56605;51.516;6.742;2023-03-24T08:59:41;100056.72;;;11.79;100.00
31285;BME280;56605;51.516;6.742;2023-03-24T09:02:08;100066.63;;;11.78;100.00
31285;BME280;56605;51.516;6.742;2023-03-24T09:04:35;100065.72;;;11.93;100.00
31285;BME280;56605;51.516;6.742;2023-03-24T09:07:01;100071.25;;;11.91;100.00
31285;BME280;56605;51.516;6.742;2023-03-24T09:09:26;100077.75;;;12.33;100.00
31285;BME280;56605;51.516;6.742;2023-03-24T09:11:53;100072.06;;;12.14;100.00
31285;BME280;56605;51.516;6.742;2023-03-24T09:14:18;100069.19;;;11.93;100.00
31285;BME280;56605;51.516;6.742;2023-03-24T09:16:43;100066.84;;;11.84;100.00
31285;BME280;56605;51.516;6.742;2023-03-24T09:19:09;100086.97;;;11.79;100.00
31285;BME280;56605;51.516;6.742;2023-03-24T09:21:35;100086.34;;;11.99;100.00
31285;BME280;56605;51.516;6.742;2023-03-24T09:24:02;100074.56;;;12.15;100.00
31285;BME280;56605;51.516;6.742;2023-03-24T09:26:28;100085.00;;;12.10;100.00
31285;BME280;56605;51.516;6.742;2023-03-24T09:28:54;100076.63;;;11.98;100.00
31285;BME280;56605;51.516;6.742;2023-03-24T09:31:19;100076.78;;;11.90;100.00
31285;BME280;56605;51.516;6.742;2023-03-24T09:33:45;100077.41;;;11.92;100.00
31285;BME280;56605;51.516;6.742;2023-03-24T09:36:11;100078.03;;;11.94;100.00
31285;BME280;56605;51.516;6.742;2023-03-24T09:38:36;100082.19;;;11.97;100.00
31285;BME280;56605;51.516;6.742;2023-03-24T09:41:03;100084.16;;;12.10;100.00
31285;BME280;56605;51.516;6.742;2023-03-24T09:43:44;100075.69;;;12.06;100.00
31285;BME280;56605;51.516;6.742;2023-03-24T09:46:14;100089.00;;;11.99;100.00
31285;BME280;56605;51.516;6.742;2023-03-24T09:48:47;100094.47;;;11.91;100.00
31285;BME280;56605;51.516;6.742;2023-03-24T09:51:21;100081.78;;;12.22;100.00
31285;BME280;56605;51.516;6.742;2023-03-24T09:53:51;100091.69;;;12.57;100.00
31285;BME280;56605;51.516;6.742;2023-03-24T09:56:20;100106.59;;;12.66;100.00
31285;BME280;56605;51.516;6.742;2023-03-24T09:58:49;100100.34;;;12.59;100.00
31285;BME280;56605;51.516;6.742;2023-03-24T10:01:17;100104.03;;;12.22;100.00
31285;BME280;56605;51.516;6.742;2023-03-24T10:03:44;100106.97;;;12.27;100.00
31285;BME280;56605;51.516;6.742;2023-03-24T10:06:23;100090.69;;;13.06;100.00
31285;BME280;56605;51.516;6.742;2023-03-24T10:09:21;100104.41;;;12.83;100.00
31285;BME280;56605;51.516;6.742;2023-03-24T10:11:46;100099.19;;;13.17;100.00
31285;BME280;56605;51.516;6.742;2023-03-24T10:17:00;100116.66;;;13.06;100.00
31285;BME280;56605;51.516;6.742;2023-03-24T10:19:49;100120.88;;;13.22;100.00
31285;BME280;56605;51.516;6.742;2023-03-24T10:22:35;100121.97;;;13.41;100.00
31285;BME280;56605;51.516;6.742;2023-03-24T10:25:20;100120.94;;;12.93;100.00
31285;BME280;56605;51.516;6.742;2023-03-24T10:27:56;100132.81;;;12.77;100.00
31285;BME280;56605;51.516;6.742;2023-03-24T10:30:26;100108.66;;;13.75;100.00
31285;BME280;56605;51.516;6.742;2023-03-24T10:32:52;100128.00;;;14.72;99.41
31285;BME280;56605;51.516;6.742;2023-03-24T10:38:25;100129.84;;;13.50;100.00
31285;BME280;56605;51.516;6.742;2023-03-24T10:40:53;100136.38;;;12.91;100.00
31285;BME280;56605;51.516;6.742;2023-03-24T10:43:18;100131.31;;;12.68;100.00
31285;BME280;56605;51.516;6.742;2023-03-24T10:45:47;100133.00;;;12.40;100.00
31285;BME280;56605;51.516;6.742;2023-03-24T10:48:45;100127.81;;;12.39;100.00
31285;BME280;56605;51.516;6.742;2023-03-24T10:51:31;100130.81;;;12.29;100.00
31285;BME280;56605;51.516;6.742;2023-03-24T10:56:45;100142.44;;;12.14;100.00
31285;BME280;56605;51.516;6.742;2023-03-24T10:59:31;100148.69;;;12.22;100.00
31285;BME280;56605;51.516;6.742;2023-03-24T11:02:16;100148.28;;;12.47;100.00
31285;BME280;56605;51.516;6.742;2023-03-24T11:04:48;100144.47;;;12.63;100.00
31285;BME280;56605;51.516;6.742;2023-03-24T11:07:18;100149.44;;;12.66;100.00
31285;BME280;56605;51.516;6.742;2023-03-24T11:12:31;100147.78;;;13.49;100.00
31285;BME280;56605;51.516;6.742;2023-03-24T11:15:34;100143.97;;;13.99;100.00
31285;BME280;56605;51.516;6.742;2023-03-24T11:20:35;100140.03;;;13.26;100.00
31285;BME280;56605;51.516;6.742;2023-03-24T11:23:18;100139.81;;;13.69;98.12
31285;BME280;56605;51.516;6.742;2023-03-24T11:25:52;100132.22;;;14.00;94.35
31285;BME280;56605;51.516;6.742;2023-03-24T11:28:26;100131.38;;;14.33;89.02
31285;BME280;56605;51.516;6.742;2023-03-24T11:30:53;100129.13;;;14.17;91.93
31285;BME280;56605;51.516;6.742;2023-03-24T11:33:26;100132.41;;;13.99;91.22
31285;BME280;56605;51.516;6.742;2023-03-24T11:35:52;100139.16;;;14.76;92.01
31285;BME280;56605;51.516;6.742;2023-03-24T11:38:27;100143.34;;;14.31;85.22
31285;BME280;56605;51.516;6.742;2023-03-24T11:40:55;100138.19;;;14.36;84.67
31285;BME280;56605;51.516;6.742;2023-03-24T11:43:26;100142.50;;;14.85;83.16
31285;BME280;56605;51.516;6.742;2023-03-24T11:51:16;100148.00;;;15.49;80.87
31285;BME280;56605;51.516;6.742;2023-03-24T11:53:50;100156.38;;;14.27;85.11
31285;BME280;56605;51.516;6.742;2023-03-24T11:56:26;100136.50;;;13.74;90.38
31285;BME280;56605;51.516;6.742;2023-03-24T11:58:59;100141.84;;;13.67;91.59
31285;BME280;56605;51.516;6.742;2023-03-24T12:01:32;100150.16;;;13.93;94.06
31285;BME280;56605;51.516;6.742;2023-03-24T12:06:34;100150.34;;;13.85;92.84
31285;BME280;56605;51.516;6.742;2023-03-24T12:09:26;100148.06;;;13.68;93.61
31285;BME280;56605;51.516;6.742;2023-03-24T12:15:03;100146.66;;;14.13;91.61
31285;BME280;56605;51.516;6.742;2023-03-24T12:17:48;100149.91;;;14.69;87.71
31285;BME280;56605;51.516;6.742;2023-03-24T12:20:22;100139.41;;;15.72;80.40
31285;BME280;56605;51.516;6.742;2023-03-24T12:23:07;100130.06;;;14.77;83.34
31285;BME280;56605;51.516;6.742;2023-03-24T12:28:33;100122.69;;;13.71;91.71
31285;BME280;56605;51.516;6.742;2023-03-24T12:40:01;100114.69;;;13.28;99.56
31285;BME280;56605;51.516;6.742;2023-03-24T12:42:46;100105.09;;;15.29;85.00
31285;BME280;56605;51.516;6.742;2023-03-24T12:45:33;100102.44;;;15.22;82.08
31285;BME280;56605;51.516;6.742;2023-03-24T12:48:13;100098.09;;;14.55;84.50
31285;BME280;56605;51.516;6.742;2023-03-24T12:56:14;100099.78;;;14.08;83.54
31285;BME280;56605;51.516;6.742;2023-03-24T13:01:32;100098.47;;;14.79;73.42
31285;BME280;56605;51.516;6.742;2023-03-24T13:04:16;100091.53;;;14.24;76.98
31285;BME280;56605;51.516;6.742;2023-03-24T13:07:00;100101.22;;;13.91;79.94
31285;BME280;56605;51.516;6.742;2023-03-24T13:09:40;100089.66;;;13.63;83.31
31285;BME280;56605;51.516;6.742;2023-03-24T13:12:13;100072.31;;;13.59;83.42
31285;BME280;56605;51.516;6.742;2023-03-24T13:15:02;100097.28;;;13.53;86.46
31285;BME280;56605;51.516;6.742;2023-03-24T13:17:35;100092.53;;;13.62;91.57
31285;BME280;56605;51.516;6.742;2023-03-24T13:20:06;100087.56;;;13.52;89.85
31285;BME280;56605;51.516;6.742;2023-03-24T13:22:37;100096.22;;;13.54;93.61
31285;BME280;56605;51.516;6.742;2023-03-24T13:25:07;100107.09;;;13.39;96.60
31285;BME280;56605;51.516;6.742;2023-03-24T13:27:40;100110.75;;;13.17;94.43
31285;BME280;56605;51.516;6.742;2023-03-24T13:30:35;100114.56;;;12.94;100.00
31285;BME280;56605;51.516;6.742;2023-03-24T13:33:29;100128.56;;;12.26;100.00
31285;BME280;56605;51.516;6.742;2023-03-24T13:38:38;100113.38;;;13.66;100.00
31285;BME280;56605;51.516;6.742;2023-03-24T13:41:11;100113.03;;;13.21;100.00
31285;BME280;56605;51.516;6.742;2023-03-24T13:43:47;100108.59;;;13.55;100.00
31285;BME280;56605;51.516;6.742;2023-03-24T13:46:14;100111.22;;;13.35;100.00
31285;BME280;56605;51.516;6.742;2023-03-24T13:48:45;100109.50;;;13.20;100.00
31285;BME280;56605;51.516;6.742;2023-03-24T13:56:40;100155.06;;;11.40;100.00
31285;BME280;56605;51.516;6.742;2023-03-24T13:59:38;100144.47;;;11.16;100.00
31285;BME280;56605;51.516;6.742;2023-03-24T14:02:20;100146.16;;;10.72;100.00
31285;BME280;56605;51.516;6.742;2023-03-24T14:17:47;100174.41;;;9.49;100.00
31285;BME280;56605;51.516;6.742;2023-03-24T14:20:25;100142.66;;;9.95;100.00
31285;BME280;56605;51.516;6.742;2023-03-24T14:22:52;100136.41;;;10.80;100.00
31285;BME280;56605;51.516;6.742;2023-03-24T14:25:28;100122.06;;;11.70;100.00
31285;BME280;56605;51.516;6.742;2023-03-24T14:28:08;100119.59;;;11.68;100.00
31285;BME280;56605;51.516;6.742;2023-03-24T14:30:35;100112.16;;;11.92;100.00
31285;BME280;56605;51.516;6.742;2023-03-24T14:33:04;100117.13;;;11.95;100.00
31285;BME280;56605;51.516;6.742;2023-03-24T14:35:38;100117.47;;;11.63;100.00
31285;BME280;56605;51.516;6.742;2023-03-24T14:40:49;100128.72;;;11.22;100.00
31285;BME280;56605;51.516;6.742;2023-03-24T14:43:26;100119.72;;;11.08;100.00
31285;BME280;56605;51.516;6.742;2023-03-24T14:45:57;100131.78;;;11.19;100.00
31285;BME280;56605;51.516;6.742;2023-03-24T14:54:03;100131.72;;;11.92;100.00
31285;BME280;56605;51.516;6.742;2023-03-24T14:56:35;100135.47;;;11.98;100.00
31285;BME280;56605;51.516;6.742;2023-03-24T14:59:08;100139.31;;;11.89;100.00